Big Bear City, California
Current Conditions -  °F | °C
As of 1:55 AM on Wednesday 26 Nov 2014 (Local Time) from KL35 Reporting Station
Clear Clear  
Wind Chill: 30°   Ceiling: Unl
Heat Index: 30°   Visibility: 10mi
Dew Point: 18°   Wind: 0mph
Humidity: 60%   Direction: NA
Pressure: 30.53"   Gusts: NA
Location:  34.26°N, 116.85°W
Report Text: KL35 260955Z AUTO 00000KT 10SM CLR M01/M08 A3053 RMK AO2
Loading
Personal Weather Stations






























Interactive Weather Map New forecast layout! Learn more

10-Day Weather Forecast

Advertisements
Track Severe Weather on mobile